createdAt,value
2023-04-18T00:01:45.804Z,102712.94
2023-04-18T00:04:14.159Z,102716.88
2023-04-18T00:06:41.242Z,102712.47
2023-04-18T00:09:08.102Z,102713.66
2023-04-18T00:11:35.225Z,102707.75
2023-04-18T00:14:03.468Z,102713.81
2023-04-18T00:16:30.667Z,102710.44
2023-04-18T00:18:57.616Z,102712.97
2023-04-18T00:21:25.790Z,102715.66
2023-04-18T00:23:52.793Z,102718.94
2023-04-18T00:26:19.704Z,102722.41
2023-04-18T00:28:46.490Z,102728.47
2023-04-18T00:31:13.390Z,102724.84
2023-04-18T00:33:40.487Z,102720.41
2023-04-18T00:36:07.476Z,102721.34
2023-04-18T00:38:34.269Z,102717.00
2023-04-18T00:41:01.073Z,102713.41
2023-04-18T00:43:28.261Z,102725.31
2023-04-18T00:45:57.227Z,102720.25
2023-04-18T00:48:24.097Z,102713.16
2023-04-18T00:50:50.901Z,102718.22
2023-04-18T00:53:17.673Z,102710.50
2023-04-18T00:55:44.460Z,102718.22
2023-04-18T00:58:11.596Z,102718.16
2023-04-18T01:00:38.401Z,102718.16
2023-04-18T01:03:06.858Z,102720.84
2023-04-18T01:05:35.206Z,102719.75
2023-04-18T01:08:02.551Z,102724.81
2023-04-18T01:10:29.980Z,102722.34
2023-04-18T01:13:16.095Z,102731.56
2023-04-18T01:15:43.859Z,102721.22
2023-04-18T01:18:11.801Z,102722.88
2023-04-18T01:20:41.496Z,102723.66
2023-04-18T01:23:10.457Z,102723.56
2023-04-18T01:25:37.515Z,102723.41
2023-04-18T01:28:05.086Z,102719.97
2023-04-18T01:30:33.028Z,102723.50
2023-04-18T01:33:04.074Z,102720.91
2023-04-18T01:35:31.483Z,102725.09
2023-04-18T01:37:58.466Z,102718.28
2023-04-18T01:40:25.407Z,102730.25
2023-04-18T01:42:52.276Z,102720.63
2023-04-18T01:45:19.740Z,102720.53
2023-04-18T01:47:47.015Z,102716.34
2023-04-18T01:50:13.990Z,102715.41
2023-04-18T01:52:41.396Z,102726.81
2023-04-18T01:55:08.636Z,102710.34
2023-04-18T01:57:36.891Z,102716.25
2023-04-18T02:00:06.773Z,102713.59
2023-04-18T02:02:34.181Z,102698.22
2023-04-18T02:05:01.293Z,102706.75
2023-04-18T02:07:28.101Z,102703.19
2023-04-18T02:09:55.179Z,102701.41
2023-04-18T02:12:22.019Z,102702.09
2023-04-18T02:14:51.832Z,102696.03
2023-04-18T02:17:19.567Z,102700.41
2023-04-18T02:19:46.716Z,102696.81
2023-04-18T02:22:13.523Z,102697.72
2023-04-18T02:24:40.332Z,102691.75
2023-04-18T02:27:07.110Z,102687.47
2023-04-18T02:29:34.047Z,102690.06
2023-04-18T02:32:01.087Z,102701.09
2023-04-18T02:34:27.894Z,102689.13
2023-04-18T02:36:54.690Z,102689.03
2023-04-18T02:39:21.600Z,102696.81
2023-04-18T02:41:48.476Z,102692.34
2023-04-18T02:44:15.487Z,102702.78
2023-04-18T02:46:42.373Z,102694.94
2023-04-18T02:49:09.171Z,102684.84
2023-04-18T02:51:36.017Z,102694.19
2023-04-18T02:54:02.915Z,102693.44
2023-04-18T02:56:29.746Z,102687.38
2023-04-18T02:58:56.667Z,102696.81
2023-04-18T03:01:23.485Z,102694.53
2023-04-18T03:03:50.450Z,102707.25
2023-04-18T03:06:17.232Z,102699.59
2023-04-18T03:08:44.056Z,102708.94
2023-04-18T03:11:10.865Z,102703.19
2023-04-18T03:13:37.660Z,102709.88
2023-04-18T03:16:04.925Z,102703.88
2023-04-18T03:18:31.751Z,102707.41
2023-04-18T03:20:58.602Z,102699.59
2023-04-18T03:23:25.377Z,102706.47
2023-04-18T03:25:52.109Z,102704.72
2023-04-18T03:28:18.897Z,102693.94
2023-04-18T03:30:45.731Z,102711.97
2023-04-18T03:33:14.498Z,102708.34
2023-04-18T03:35:41.360Z,102706.13
2023-04-18T03:38:08.098Z,102700.91
2023-04-18T03:40:34.891Z,102719.19
2023-04-18T03:43:01.733Z,102715.06
2023-04-18T03:45:28.643Z,102716.97
2023-04-18T03:47:55.500Z,102714.72
2023-04-18T03:50:22.294Z,102716.56
2023-04-18T03:52:49.085Z,102711.47
2023-04-18T03:55:15.983Z,102715.03
2023-04-18T03:57:42.753Z,102719.16
2023-04-18T04:00:10.484Z,102717.22
2023-04-18T04:02:37.387Z,102720.38
2023-04-18T04:05:05.193Z,102718.50
2023-04-18T04:07:32.260Z,102724.19
2023-04-18T04:09:59.036Z,102724.72
2023-04-18T04:12:25.885Z,102722.25
2023-04-18T04:14:52.729Z,102734.47
2023-04-18T04:17:19.576Z,102726.19
2023-04-18T04:19:46.417Z,102729.56
2023-04-18T04:22:13.576Z,102725.59
2023-04-18T04:24:40.537Z,102735.78
2023-04-18T04:27:08.186Z,102739.25
2023-04-18T04:29:36.187Z,102739.34
2023-04-18T04:32:05.748Z,102729.78
2023-04-18T04:34:34.507Z,102715.88
2023-04-18T04:37:01.588Z,102737.81
2023-04-18T04:39:28.390Z,102733.81
2023-04-18T04:41:55.523Z,102735.41
2023-04-18T04:44:26.077Z,102724.34
2023-04-18T04:46:54.604Z,102732.34
2023-04-18T04:49:22.087Z,102724.03
2023-04-18T04:51:49.082Z,102721.69
2023-04-18T04:54:16.301Z,102734.56
2023-04-18T04:56:43.316Z,102736.47
2023-04-18T04:59:10.104Z,102732.94
2023-04-18T05:01:45.286Z,102735.22
2023-04-18T05:04:12.880Z,102735.25
2023-04-18T05:06:40.354Z,102737.56
2023-04-18T05:09:07.292Z,102733.31
2023-04-18T05:11:34.054Z,102733.28
2023-04-18T05:14:00.839Z,102730.38
2023-04-18T05:16:27.645Z,102728.47
2023-04-18T05:18:54.511Z,102732.28
2023-04-18T05:21:21.270Z,102726.59
2023-04-18T05:23:48.047Z,102724.63
2023-04-18T05:26:14.938Z,102730.38
2023-04-18T05:28:41.813Z,102731.88
2023-04-18T05:31:08.674Z,102733.88
2023-04-18T05:33:35.689Z,102727.78
2023-04-18T05:36:02.710Z,102718.53
2023-04-18T05:38:29.568Z,102720.88
2023-04-18T05:40:57.179Z,102722.03
2023-04-18T05:43:24.012Z,102721.97
2023-04-18T05:45:52.749Z,102717.91
2023-04-18T05:48:19.771Z,102718.28
2023-04-18T05:50:46.535Z,102721.06
2023-04-18T05:53:13.302Z,102725.28
2023-04-18T05:55:41.118Z,102722.34
2023-04-18T05:58:08.036Z,102734.44
2023-04-18T06:00:35.084Z,102714.84
2023-04-18T06:03:02.158Z,102727.91
2023-04-18T06:05:29.522Z,102723.91
2023-04-18T06:07:56.481Z,102721.03
2023-04-18T06:10:23.276Z,102716.00
2023-04-18T06:12:50.098Z,102720.41
2023-04-18T06:15:16.941Z,102709.56
2023-04-18T06:17:44.739Z,102714.63
2023-04-18T06:20:11.786Z,102705.03
2023-04-18T06:22:38.586Z,102716.47
2023-04-18T06:25:05.887Z,102718.28
2023-04-18T06:27:32.736Z,102724.84
2023-04-18T06:29:59.500Z,102716.72
2023-04-18T06:32:26.609Z,102728.84
2023-04-18T06:34:53.613Z,102720.25
2023-04-18T06:37:20.564Z,102723.13
2023-04-18T06:39:47.407Z,102722.75
2023-04-18T06:42:14.193Z,102720.34
2023-04-18T06:44:43.082Z,102730.28
2023-04-18T06:47:10.049Z,102737.84
2023-04-18T06:49:37.240Z,102727.94
2023-04-18T06:52:04.072Z,102744.09
2023-04-18T06:54:30.903Z,102742.63
2023-04-18T06:56:57.695Z,102745.81
2023-04-18T06:59:24.497Z,102742.84
2023-04-18T07:01:51.494Z,102752.31
2023-04-18T07:04:18.834Z,102736.69
2023-04-18T07:06:45.879Z,102746.34
2023-04-18T07:09:12.783Z,102742.25
2023-04-18T07:11:40.918Z,102735.88
2023-04-18T07:14:07.836Z,102742.53
2023-04-18T07:16:34.837Z,102738.09
2023-04-18T07:19:01.662Z,102738.00
2023-04-18T07:21:28.494Z,102738.13
2023-04-18T07:23:55.440Z,102752.41
2023-04-18T07:26:22.351Z,102743.75
2023-04-18T07:28:49.303Z,102753.47
2023-04-18T07:31:16.661Z,102736.34
2023-04-18T07:33:43.789Z,102744.94
2023-04-18T07:36:10.959Z,102749.06
2023-04-18T07:38:37.844Z,102749.56
2023-04-18T07:41:04.694Z,102760.16
2023-04-18T07:43:31.668Z,102752.88
2023-04-18T07:45:58.682Z,102752.91
2023-04-18T07:48:26.025Z,102741.03
2023-04-18T07:50:53.497Z,102756.84
2023-04-18T07:53:20.315Z,102767.28
2023-04-18T07:55:47.134Z,102759.03
2023-04-18T07:58:14.102Z,102751.78
2023-04-18T08:00:42.708Z,102742.47
2023-04-18T08:03:13.015Z,102750.75
2023-04-18T08:05:40.991Z,102745.28
2023-04-18T08:08:08.792Z,102754.75
2023-04-18T08:10:35.930Z,102758.88
2023-04-18T08:13:03.031Z,102745.22
2023-04-18T08:15:32.302Z,102757.41
2023-04-18T08:17:59.736Z,102771.31
2023-04-18T08:20:26.688Z,102774.84
2023-04-18T08:23:05.647Z,102783.06
2023-04-18T08:25:33.633Z,102783.97
2023-04-18T08:28:00.521Z,102768.16
2023-04-18T08:30:27.499Z,102772.56
2023-04-18T08:32:54.372Z,102762.66
2023-04-18T08:35:21.393Z,102758.78
2023-04-18T08:37:48.284Z,102761.78
2023-04-18T08:40:15.058Z,102763.44
2023-04-18T08:42:43.410Z,102763.47
2023-04-18T08:45:12.418Z,102756.44
2023-04-18T08:47:39.218Z,102768.75
2023-04-18T08:50:06.869Z,102775.31
2023-04-18T08:52:34.428Z,102772.50
2023-04-18T08:55:02.789Z,102769.75
2023-04-18T08:57:31.137Z,102772.56
2023-04-18T09:00:00.801Z,102768.22
2023-04-18T09:02:43.919Z,102770.47
2023-04-18T09:05:11.856Z,102763.00
2023-04-18T09:07:38.647Z,102759.94
2023-04-18T09:10:05.790Z,102765.09
2023-04-18T09:12:34.619Z,102761.69
2023-04-18T09:15:11.318Z,102762.03
2023-04-18T09:17:41.810Z,102765.41
2023-04-18T09:20:12.337Z,102762.41
2023-04-18T09:22:48.611Z,102770.56
2023-04-18T09:25:53.376Z,102767.66
2023-04-18T09:28:23.847Z,102753.78
2023-04-18T09:30:54.432Z,102759.31
2023-04-18T09:33:28.687Z,102763.53
2023-04-18T09:35:56.769Z,102756.19
2023-04-18T09:38:39.617Z,102763.78
2023-04-18T09:41:10.356Z,102755.94
2023-04-18T09:43:37.249Z,102762.13
2023-04-18T09:46:04.338Z,102758.34
2023-04-18T09:48:31.389Z,102763.66
2023-04-18T09:51:09.593Z,102753.84
2023-04-18T09:53:40.071Z,102752.72
2023-04-18T09:56:08.556Z,102757.59
2023-04-18T09:58:35.809Z,102750.25
2023-04-18T10:01:02.606Z,102763.19
2023-04-18T10:03:34.825Z,102773.00
2023-04-18T10:06:01.861Z,102762.22
2023-04-18T10:08:28.748Z,102741.31
2023-04-18T10:10:57.948Z,102751.28
2023-04-18T10:13:26.329Z,102752.28
2023-04-18T10:15:53.497Z,102752.31
2023-04-18T10:18:23.207Z,102759.31
2023-04-18T10:20:50.536Z,102748.34
2023-04-18T10:23:36.572Z,102757.91
2023-04-18T10:26:04.515Z,102746.84
2023-04-18T10:28:53.789Z,102749.94
2023-04-18T10:31:28.182Z,102748.88
2023-04-18T10:34:04.772Z,102745.53
2023-04-18T10:36:33.107Z,102742.25
2023-04-18T10:39:21.532Z,102725.94
2023-04-18T10:41:50.608Z,102732.81
2023-04-18T10:44:19.466Z,102729.88
2023-04-18T10:46:52.217Z,102730.38
2023-04-18T10:49:25.214Z,102735.59
2023-04-18T10:52:00.098Z,102730.03
2023-04-18T10:54:37.836Z,102737.63
2023-04-18T10:57:05.515Z,102731.44
2023-04-18T10:59:33.126Z,102739.81
2023-04-18T11:02:20.809Z,102729.38
2023-04-18T11:04:51.866Z,102721.03
2023-04-18T11:07:18.710Z,102718.91
2023-04-18T11:09:55.371Z,102727.94
2023-04-18T11:12:22.739Z,102722.09
2023-04-18T11:14:55.376Z,102720.81
2023-04-18T11:17:23.972Z,102714.34
2023-04-18T11:19:51.798Z,102710.19
2023-04-18T11:22:20.080Z,102725.19
2023-04-18T11:24:46.912Z,102708.13
2023-04-18T11:27:14.059Z,102725.09
2023-04-18T11:29:40.964Z,102714.53
2023-04-18T11:32:08.686Z,102701.56
2023-04-18T11:34:36.041Z,102718.03
2023-04-18T11:37:06.472Z,102711.84
2023-04-18T11:39:42.465Z,102712.63
2023-04-18T11:42:09.642Z,102713.91
2023-04-18T11:44:40.732Z,102703.31
2023-04-18T11:47:22.833Z,102710.38
2023-04-18T11:49:58.393Z,102708.50
2023-04-18T11:52:26.997Z,102698.47
2023-04-18T11:54:53.854Z,102699.56
2023-04-18T11:57:27.830Z,102695.44
2023-04-18T11:59:59.346Z,102701.63
2023-04-18T12:02:27.574Z,102699.69
2023-04-18T12:04:56.420Z,102700.91
2023-04-18T12:07:42.803Z,102700.09
2023-04-18T12:10:30.946Z,102700.69
2023-04-18T12:13:01.235Z,102694.09
2023-04-18T12:15:28.884Z,102690.34
2023-04-18T12:18:03.232Z,102691.78
2023-04-18T12:20:46.013Z,102692.00
2023-04-18T12:23:31.346Z,102688.84
2023-04-18T12:26:14.807Z,102680.94
2023-04-18T12:28:44.463Z,102683.94
2023-04-18T12:31:11.516Z,102674.50
2023-04-18T12:33:38.358Z,102679.03
2023-04-18T12:36:06.203Z,102669.97
2023-04-18T12:38:33.009Z,102668.31
2023-04-18T12:40:59.809Z,102657.34
2023-04-18T12:43:28.212Z,102660.25
2023-04-18T12:45:55.395Z,102660.28
2023-04-18T12:48:22.645Z,102650.63
2023-04-18T12:50:49.508Z,102654.22
2023-04-18T12:53:16.287Z,102659.28
2023-04-18T12:55:43.137Z,102649.91
2023-04-18T12:58:09.944Z,102650.41
2023-04-18T13:00:37.453Z,102642.59
2023-04-18T13:03:04.771Z,102641.50
2023-04-18T13:05:34.095Z,102647.41
2023-04-18T13:10:31.617Z,102662.53
2023-04-18T13:12:58.430Z,102644.63
2023-04-18T13:15:26.192Z,102655.06
2023-04-18T13:17:53.248Z,102642.44
2023-04-18T13:20:20.163Z,102647.63
2023-04-18T13:22:47.086Z,102654.38
2023-04-18T13:25:13.845Z,102648.25
2023-04-18T13:27:41.895Z,102666.56
2023-04-18T13:30:10.849Z,102666.84
2023-04-18T13:32:39.312Z,102661.50
2023-04-18T13:35:08.445Z,102661.19
2023-04-18T13:37:35.722Z,102666.34
2023-04-18T13:40:05.487Z,102671.78
2023-04-18T13:45:20.846Z,102675.16
2023-04-18T13:47:47.662Z,102668.19
2023-04-18T13:50:14.581Z,102663.50
2023-04-18T13:52:41.529Z,102668.91
2023-04-18T13:55:10.594Z,102663.56
2023-04-18T13:57:37.460Z,102669.63
2023-04-18T14:00:06.650Z,102661.25
2023-04-18T14:02:33.658Z,102656.97
2023-04-18T14:05:01.342Z,102663.91
2023-04-18T14:07:28.216Z,102654.06
2023-04-18T14:09:55.029Z,102665.13
2023-04-18T14:12:49.372Z,102661.63
2023-04-18T14:18:44.434Z,102660.84
2023-04-18T14:21:11.217Z,102649.63
2023-04-18T14:23:38.016Z,102659.75
2023-04-18T14:26:05.609Z,102654.16
2023-04-18T14:28:32.394Z,102664.69
2023-04-18T14:31:02.126Z,102660.34
2023-04-18T14:33:29.422Z,102660.34
2023-04-18T14:35:56.481Z,102658.03
2023-04-18T14:38:23.282Z,102660.38
2023-04-18T14:40:50.120Z,102653.03
2023-04-18T14:43:17.019Z,102650.19
2023-04-18T14:45:43.825Z,102648.03
2023-04-18T14:48:10.662Z,102647.88
2023-04-18T14:50:38.722Z,102647.72
2023-04-18T14:53:06.221Z,102644.72
2023-04-18T14:55:33.988Z,102636.53
2023-04-18T14:58:01.314Z,102639.03
2023-04-18T15:00:28.999Z,102646.16
2023-04-18T15:02:56.163Z,102634.13
2023-04-18T15:05:26.634Z,102626.25
2023-04-18T15:07:53.573Z,102634.25
2023-04-18T15:10:22.485Z,102638.75
2023-04-18T15:12:51.206Z,102639.25
2023-04-18T15:15:19.522Z,102643.38
2023-04-18T15:17:46.484Z,102638.50
2023-04-18T15:20:13.377Z,102639.69
2023-04-18T15:22:40.208Z,102626.97
2023-04-18T15:25:07.797Z,102634.56
2023-04-18T15:27:34.716Z,102638.59
2023-04-18T15:30:02.434Z,102651.59
2023-04-18T15:32:29.341Z,102641.53
2023-04-18T15:34:56.346Z,102641.81
2023-04-18T15:37:23.722Z,102631.44
2023-04-18T15:39:50.649Z,102628.38
2023-04-18T15:42:17.519Z,102629.91
2023-04-18T15:44:44.438Z,102628.56
2023-04-18T15:47:11.402Z,102639.22
2023-04-18T15:49:38.402Z,102637.72
2023-04-18T15:52:06.945Z,102639.25
2023-04-18T15:54:33.937Z,102651.25
2023-04-18T15:57:00.802Z,102655.41
2023-04-18T15:59:27.939Z,102649.94
2023-04-18T16:01:54.880Z,102646.97
2023-04-18T16:04:21.964Z,102648.19
2023-04-18T16:06:48.756Z,102655.78
2023-04-18T16:09:16.376Z,102655.94
2023-04-18T16:11:43.140Z,102648.31
2023-04-18T16:14:09.942Z,102648.81
2023-04-18T16:16:36.800Z,102653.38
2023-04-18T16:19:04.585Z,102652.88
2023-04-18T16:21:32.590Z,102655.56
2023-04-18T16:23:59.936Z,102646.63
2023-04-18T16:26:26.773Z,102652.88
2023-04-18T16:28:53.617Z,102662.69
2023-04-18T16:31:20.554Z,102646.03
2023-04-18T16:33:47.467Z,102654.41
2023-04-18T16:36:14.517Z,102639.06
2023-04-18T16:38:41.515Z,102653.56
2023-04-18T16:41:08.333Z,102654.03
2023-04-18T16:43:38.211Z,102646.00
2023-04-18T16:46:05.323Z,102640.59
2023-04-18T16:48:32.227Z,102642.13
2023-04-18T16:50:59.122Z,102651.81
2023-04-18T16:53:26.020Z,102649.25
2023-04-18T16:55:55.987Z,102648.25
2023-04-18T16:58:23.731Z,102659.69
2023-04-18T17:00:50.584Z,102654.53
2023-04-18T17:03:17.540Z,102650.41
2023-04-18T17:05:44.728Z,102652.34
2023-04-18T17:08:11.655Z,102657.63
2023-04-18T17:10:38.481Z,102656.94
2023-04-18T17:13:05.296Z,102668.41
2023-04-18T17:15:32.158Z,102667.78
2023-04-18T17:18:01.186Z,102668.94
2023-04-18T17:20:28.518Z,102662.31
2023-04-18T17:22:55.644Z,102668.72
2023-04-18T17:25:22.531Z,102669.66
2023-04-18T17:27:49.396Z,102669.28
2023-04-18T17:30:16.295Z,102681.72
2023-04-18T17:32:46.141Z,102696.09
2023-04-18T17:35:14.755Z,102680.59
2023-04-18T17:37:42.543Z,102676.56
2023-04-18T17:40:10.248Z,102685.75
2023-04-18T17:42:37.139Z,102691.84
2023-04-18T17:45:05.382Z,102689.03
2023-04-18T17:47:33.594Z,102691.28
2023-04-18T17:50:00.923Z,102683.97
2023-04-18T17:52:30.737Z,102689.66
2023-04-18T17:54:58.658Z,102681.25
2023-04-18T17:57:26.733Z,102691.31
2023-04-18T17:59:53.636Z,102688.19
2023-04-18T18:02:20.541Z,102692.22
2023-04-18T18:04:47.698Z,102692.03
2023-04-18T18:07:14.619Z,102701.09
2023-04-18T18:09:45.612Z,102706.72
2023-04-18T18:12:12.499Z,102707.16
2023-04-18T18:14:40.612Z,102694.38
2023-04-18T18:17:07.572Z,102693.09
2023-04-18T18:19:37.561Z,102704.41
2023-04-18T18:22:04.359Z,102686.78
2023-04-18T18:24:31.283Z,102691.34
2023-04-18T18:26:59.035Z,102703.00
2023-04-18T18:29:26.165Z,102697.41
2023-04-18T18:31:53.026Z,102696.75
2023-04-18T18:34:21.261Z,102694.63
2023-04-18T18:36:48.086Z,102693.25
2023-04-18T18:39:16.551Z,102699.84
2023-04-18T18:41:43.506Z,102695.19
2023-04-18T18:44:10.494Z,102704.09
2023-04-18T18:46:37.423Z,102699.19
2023-04-18T18:49:04.221Z,102692.69
2023-04-18T18:51:31.069Z,102692.00
2023-04-18T18:53:58.046Z,102695.84
2023-04-18T18:56:24.838Z,102693.34
2023-04-18T18:58:53.817Z,102694.56
2023-04-18T19:01:21.142Z,102694.03
2023-04-18T19:03:48.325Z,102693.41
2023-04-18T19:06:15.423Z,102696.16
2023-04-18T19:08:42.252Z,102699.88
2023-04-18T19:11:09.694Z,102698.44
2023-04-18T19:13:36.583Z,102692.72
2023-04-18T19:16:03.470Z,102684.31
2023-04-18T19:18:30.421Z,102684.44
2023-04-18T19:20:57.317Z,102688.00
2023-04-18T19:23:25.318Z,102691.72
2023-04-18T19:25:52.319Z,102686.81
2023-04-18T19:28:19.245Z,102684.44
2023-04-18T19:30:46.550Z,102689.81
2023-04-18T19:33:13.744Z,102688.25
2023-04-18T19:35:40.735Z,102681.28
2023-04-18T19:38:07.670Z,102678.06
2023-04-18T19:40:34.438Z,102682.66
2023-04-18T19:43:01.270Z,102664.88
2023-04-18T19:45:28.078Z,102672.44
2023-04-18T19:47:54.971Z,102666.84
2023-04-18T19:50:21.813Z,102673.72
2023-04-18T19:52:48.630Z,102663.47
2023-04-18T19:55:15.659Z,102659.16
2023-04-18T19:57:43.394Z,102668.69
2023-04-18T20:00:11.793Z,102656.66
2023-04-18T20:02:42.137Z,102649.84
2023-04-18T20:05:09.743Z,102640.56
2023-04-18T20:07:37.052Z,102646.56
2023-04-18T20:10:04.583Z,102640.69
2023-04-18T20:12:31.521Z,102639.03
2023-04-18T20:14:59.073Z,102636.69
2023-04-18T20:17:26.315Z,102635.78
2023-04-18T20:19:53.435Z,102635.88
2023-04-18T20:22:20.309Z,102629.16
2023-04-18T20:24:48.777Z,102633.53
2023-04-18T20:27:15.666Z,102618.22
2023-04-18T20:29:42.504Z,102614.00
2023-04-18T20:32:11.315Z,102608.16
2023-04-18T20:34:38.133Z,102616.09
2023-04-18T20:37:07.533Z,102611.25
2023-04-18T20:39:34.395Z,102601.16
2023-04-18T20:42:04.247Z,102594.09
2023-04-18T20:44:33.536Z,102595.94
2023-04-18T20:47:00.315Z,102582.28
2023-04-18T20:49:27.138Z,102584.19
2023-04-18T20:51:53.940Z,102578.28
2023-04-18T20:54:20.753Z,102528.41
2023-04-18T20:56:47.679Z,102525.09
2023-04-18T20:59:14.478Z,102523.50
2023-04-18T21:01:41.383Z,102510.69
2023-04-18T21:04:08.389Z,102510.06
2023-04-18T21:06:36.737Z,102509.16
2023-04-18T21:09:04.324Z,102506.81
2023-04-18T21:11:31.316Z,102488.97
2023-04-18T21:13:58.122Z,102504.22
2023-04-18T21:16:25.028Z,102505.28
2023-04-18T21:18:53.217Z,102504.59
2023-04-18T21:21:20.096Z,102481.53
2023-04-18T21:23:46.860Z,102485.75
2023-04-18T21:26:14.100Z,102473.88
2023-04-18T21:29:01.660Z,102476.41
2023-04-18T21:31:30.012Z,102461.91
2023-04-18T21:33:58.042Z,102465.44
2023-04-18T21:36:27.032Z,102460.25
2023-04-18T21:38:58.481Z,102460.28
2023-04-18T21:41:25.423Z,102478.59
2023-04-18T21:43:52.326Z,102464.88
2023-04-18T21:46:19.387Z,102469.03
2023-04-18T21:48:46.877Z,102448.34
2023-04-18T21:51:14.864Z,102449.19
2023-04-18T21:53:41.935Z,102446.81
2023-04-18T21:56:08.833Z,102447.88
2023-04-18T21:58:35.684Z,102443.56
2023-04-18T22:01:02.752Z,102440.97
2023-04-18T22:03:29.878Z,102432.47
2023-04-18T22:05:57.567Z,102434.94
2023-04-18T22:08:25.914Z,102418.75
2023-04-18T22:10:58.342Z,102430.06
2023-04-18T22:13:25.734Z,102421.34
2023-04-18T22:15:52.590Z,102421.44
2023-04-18T22:18:19.448Z,102414.47
2023-04-18T22:20:47.029Z,102405.75
2023-04-18T22:23:13.996Z,102416.09
2023-04-18T22:25:41.070Z,102403.16
2023-04-18T22:28:07.965Z,102403.03
2023-04-18T22:30:34.836Z,102397.22
2023-04-18T22:33:01.792Z,102406.47
2023-04-18T22:35:28.637Z,102393.63
2023-04-18T22:37:55.870Z,102395.22
2023-04-18T22:40:22.663Z,102386.53
2023-04-18T22:42:51.983Z,102379.50
2023-04-18T22:45:19.499Z,102380.97
2023-04-18T22:47:46.821Z,102373.22
2023-04-18T22:50:14.103Z,102364.66
2023-04-18T22:52:41.390Z,102366.13
2023-04-18T22:55:08.887Z,102373.09
2023-04-18T22:57:35.773Z,102351.44
2023-04-18T23:00:04.263Z,102363.47
2023-04-18T23:02:31.280Z,102353.06
2023-04-18T23:04:59.049Z,102349.47
2023-04-18T23:07:25.923Z,102352.75
2023-04-18T23:09:52.723Z,102343.22
2023-04-18T23:12:19.546Z,102343.81
2023-04-18T23:14:46.411Z,102334.41
2023-04-18T23:17:13.203Z,102336.81
2023-04-18T23:19:40.184Z,102329.59
2023-04-18T23:22:06.964Z,102321.06
2023-04-18T23:24:33.785Z,102315.63
2023-04-18T23:27:01.623Z,102330.00
2023-04-18T23:29:28.444Z,102320.53
2023-04-18T23:31:55.376Z,102322.94
2023-04-18T23:34:22.280Z,102314.94
2023-04-18T23:36:49.108Z,102319.22
2023-04-18T23:39:18.544Z,102320.53
2023-04-18T23:41:45.746Z,102318.53
2023-04-18T23:44:12.756Z,102318.91
2023-04-18T23:46:39.659Z,102324.31
2023-04-18T23:49:06.602Z,102331.69
2023-04-18T23:51:33.707Z,102339.72
2023-04-18T23:54:00.476Z,102330.41
2023-04-18T23:56:27.541Z,102322.28
2023-04-18T23:58:54.348Z,102330.22
